createdAt,value
2018-11-03T00:00:57.682Z,4.72
2018-11-03T00:01:57.694Z,4.77
2018-11-03T00:02:57.711Z,4.66
2018-11-03T00:03:57.674Z,4.70
2018-11-03T00:04:57.675Z,4.69
2018-11-03T00:05:57.671Z,4.63
2018-11-03T00:06:57.668Z,4.63
2018-11-03T00:07:57.731Z,4.73
2018-11-03T00:08:57.653Z,4.63
2018-11-03T00:09:57.680Z,4.69
2018-11-03T00:10:57.657Z,4.78
2018-11-03T00:11:57.702Z,4.72
2018-11-03T00:12:57.647Z,4.70
2018-11-03T00:13:57.675Z,4.65
2018-11-03T00:14:57.653Z,4.70
2018-11-03T00:15:57.659Z,4.69
2018-11-03T00:16:57.647Z,4.75
2018-11-03T00:17:57.647Z,4.78
2018-11-03T00:18:57.677Z,4.88
2018-11-03T00:19:57.657Z,4.75
2018-11-03T00:20:57.663Z,4.84
2018-11-03T00:21:57.638Z,4.88
2018-11-03T00:22:57.638Z,4.84
2018-11-03T00:23:57.638Z,4.85
2018-11-03T00:24:57.645Z,4.85
2018-11-03T00:25:57.654Z,4.88
2018-11-03T00:26:57.627Z,4.89
2018-11-03T00:27:57.639Z,4.88
2018-11-03T00:28:57.641Z,4.86
2018-11-03T00:29:57.631Z,4.85
2018-11-03T00:30:57.632Z,4.86
2018-11-03T00:31:57.634Z,4.78
2018-11-03T00:32:57.652Z,4.84
2018-11-03T00:33:57.641Z,4.82
2018-11-03T00:34:57.611Z,4.78
2018-11-03T00:35:57.689Z,4.75
2018-11-03T00:36:57.631Z,4.72
2018-11-03T00:37:57.621Z,4.73
2018-11-03T00:38:57.625Z,4.75
2018-11-03T00:39:57.626Z,4.75
2018-11-03T00:40:57.610Z,4.77
2018-11-03T00:41:57.615Z,4.84
2018-11-03T00:42:57.613Z,4.88
2018-11-03T00:43:57.662Z,4.89
2018-11-03T00:44:57.613Z,4.89
2018-11-03T00:45:57.592Z,4.86
2018-11-03T00:46:57.635Z,4.77
2018-11-03T00:47:57.588Z,4.86
2018-11-03T00:48:57.582Z,4.80
2018-11-03T00:49:57.591Z,4.84
2018-11-03T00:50:57.579Z,4.84
2018-11-03T00:51:57.592Z,4.73
2018-11-03T00:52:57.576Z,4.86
2018-11-03T00:53:57.582Z,4.86
2018-11-03T00:54:57.595Z,4.82
2018-11-03T00:55:57.615Z,4.73
2018-11-03T00:56:57.579Z,4.73
2018-11-03T00:57:57.585Z,4.88
2018-11-03T00:58:57.598Z,4.84
2018-11-03T00:59:57.572Z,4.75
2018-11-03T01:00:57.579Z,4.88
2018-11-03T01:01:57.574Z,4.84
2018-11-03T01:02:57.576Z,4.85
2018-11-03T01:03:57.558Z,4.78
2018-11-03T01:04:57.557Z,4.77
2018-11-03T01:05:57.603Z,4.67
2018-11-03T01:06:57.565Z,4.84
2018-11-03T01:07:57.580Z,4.73
2018-11-03T01:08:57.568Z,4.88
2018-11-03T01:09:57.542Z,4.86
2018-11-03T01:10:57.546Z,4.88
2018-11-03T01:11:57.565Z,4.77
2018-11-03T01:12:57.554Z,4.73
2018-11-03T01:13:57.539Z,4.75
2018-11-03T01:14:57.542Z,4.73
2018-11-03T01:15:57.549Z,4.70
2018-11-03T01:16:57.541Z,4.66
2018-11-03T01:17:57.539Z,4.54
2018-11-03T01:18:57.553Z,4.59
2018-11-03T01:19:57.536Z,4.54
2018-11-03T01:20:57.532Z,4.67
2018-11-03T01:21:57.539Z,4.69
2018-11-03T01:22:57.540Z,4.67
2018-11-03T01:23:57.523Z,4.59
2018-11-03T01:24:57.521Z,4.69
2018-11-03T01:25:57.515Z,4.66
2018-11-03T01:26:57.531Z,4.72
2018-11-03T01:27:57.531Z,4.62
2018-11-03T01:28:57.531Z,4.73
2018-11-03T01:29:57.528Z,4.75
2018-11-03T01:30:57.507Z,4.66
2018-11-03T01:31:57.530Z,4.72
2018-11-03T01:32:57.517Z,4.67
2018-11-03T01:33:57.528Z,4.65
2018-11-03T01:34:57.514Z,4.69
2018-11-03T01:35:57.497Z,4.67
2018-11-03T01:36:57.503Z,4.54
2018-11-03T01:37:57.497Z,4.52
2018-11-03T01:38:57.509Z,4.66
2018-11-03T01:39:57.498Z,4.55
2018-11-03T01:40:57.495Z,4.72
2018-11-03T01:41:57.507Z,4.70
2018-11-03T01:42:57.507Z,4.73
2018-11-03T01:43:57.505Z,4.66
2018-11-03T01:44:57.493Z,4.54
2018-11-03T01:45:57.499Z,4.62
2018-11-03T01:46:57.491Z,4.66
2018-11-03T01:47:57.483Z,4.66
2018-11-03T01:48:57.478Z,4.55
2018-11-03T01:49:57.472Z,4.60
2018-11-03T01:50:57.470Z,4.58
2018-11-03T01:51:57.472Z,4.48
2018-11-03T01:52:57.468Z,4.48
2018-11-03T01:53:57.475Z,4.58
2018-11-03T01:54:57.456Z,4.54
2018-11-03T01:55:57.459Z,4.48
2018-11-03T01:56:57.471Z,4.51
2018-11-03T01:57:57.475Z,4.55
2018-11-03T01:58:57.457Z,4.48
2018-11-03T01:59:57.508Z,4.48
2018-11-03T02:00:57.457Z,4.54
2018-11-03T02:01:57.464Z,4.51
2018-11-03T02:02:57.467Z,4.48
2018-11-03T02:03:57.471Z,4.47
2018-11-03T02:04:57.483Z,4.42
2018-11-03T02:05:57.479Z,4.41
2018-11-03T02:06:57.433Z,4.32
2018-11-03T02:07:57.470Z,4.40
2018-11-03T02:08:57.463Z,4.36
2018-11-03T02:09:57.446Z,4.32
2018-11-03T02:10:57.426Z,4.37
2018-11-03T02:11:57.431Z,4.34
2018-11-03T02:12:57.434Z,4.36
2018-11-03T02:13:57.426Z,4.34
2018-11-03T02:14:57.423Z,4.34
2018-11-03T02:15:57.444Z,4.34
2018-11-03T02:16:57.416Z,4.34
2018-11-03T02:17:57.421Z,4.22
2018-11-03T02:18:57.416Z,4.12
2018-11-03T02:19:57.443Z,4.18
2018-11-03T02:20:57.432Z,4.22
2018-11-03T02:21:57.413Z,4.23
2018-11-03T02:22:57.422Z,4.23
2018-11-03T02:23:57.440Z,4.09
2018-11-03T02:24:57.409Z,4.15
2018-11-03T02:25:57.401Z,4.16
2018-11-03T02:26:57.406Z,4.14
2018-11-03T02:27:57.407Z,4.22
2018-11-03T02:28:57.403Z,4.15
2018-11-03T02:29:57.400Z,4.16
2018-11-03T02:30:57.402Z,4.20
2018-11-03T02:31:57.387Z,4.16
2018-11-03T02:32:57.403Z,4.12
2018-11-03T02:33:57.443Z,4.06
2018-11-03T02:34:57.412Z,4.12
2018-11-03T02:35:57.378Z,4.20
2018-11-03T02:36:57.415Z,4.20
2018-11-03T02:37:57.421Z,4.23
2018-11-03T02:38:57.373Z,4.29
2018-11-03T02:39:57.383Z,4.23
2018-11-03T02:40:57.369Z,4.26
2018-11-03T02:41:57.376Z,4.24
2018-11-03T02:42:57.374Z,4.27
2018-11-03T02:43:57.369Z,4.23
2018-11-03T02:44:57.367Z,4.26
2018-11-03T02:45:57.385Z,4.20
2018-11-03T02:46:57.375Z,4.24
2018-11-03T02:47:57.352Z,4.12
2018-11-03T02:48:57.396Z,4.18
2018-11-03T02:49:57.362Z,4.22
2018-11-03T02:50:57.347Z,4.26
2018-11-03T02:51:57.362Z,4.26
2018-11-03T02:52:57.360Z,4.18
2018-11-03T02:53:57.348Z,4.14
2018-11-03T02:54:57.366Z,4.24
2018-11-03T02:55:57.349Z,4.20
2018-11-03T02:56:57.363Z,4.22
2018-11-03T02:57:57.345Z,4.26
2018-11-03T02:58:57.342Z,4.20
2018-11-03T02:59:57.338Z,4.22
2018-11-03T03:00:57.327Z,4.22
2018-11-03T03:01:57.322Z,4.29
2018-11-03T03:02:57.331Z,4.24
2018-11-03T03:03:57.322Z,4.29
2018-11-03T03:04:57.317Z,4.27
2018-11-03T03:05:57.320Z,4.34
2018-11-03T03:06:57.332Z,4.30
2018-11-03T03:07:57.323Z,4.26
2018-11-03T03:08:57.324Z,4.33
2018-11-03T03:09:57.348Z,4.27
2018-11-03T03:10:57.326Z,4.29
2018-11-03T03:11:57.298Z,4.26
2018-11-03T03:12:57.313Z,4.14
2018-11-03T03:13:57.308Z,4.18
2018-11-03T03:14:57.325Z,4.06
2018-11-03T03:15:57.294Z,4.08
2018-11-03T03:16:57.294Z,4.05
2018-11-03T03:17:57.342Z,4.05
2018-11-03T03:18:57.293Z,4.02
2018-11-03T03:19:57.291Z,4.06
2018-11-03T03:20:57.291Z,4.09
2018-11-03T03:21:57.282Z,4.08
2018-11-03T03:22:57.283Z,4.09
2018-11-03T03:23:57.282Z,4.05
2018-11-03T03:24:57.278Z,4.05
2018-11-03T03:25:57.283Z,4.09
2018-11-03T03:26:57.286Z,4.04
2018-11-03T03:27:57.282Z,4.05
2018-11-03T03:28:57.287Z,4.08
2018-11-03T03:29:57.291Z,4.09
2018-11-03T03:30:57.279Z,4.11
2018-11-03T03:31:57.274Z,4.20
2018-11-03T03:32:57.281Z,4.20
2018-11-03T03:33:57.267Z,4.09
2018-11-03T03:34:57.257Z,4.09
2018-11-03T03:35:58.838Z,4.11
2018-11-03T03:36:57.260Z,4.05
2018-11-03T03:37:57.256Z,4.11
2018-11-03T03:38:57.242Z,4.05
2018-11-03T03:39:57.258Z,4.04
2018-11-03T03:40:57.260Z,4.06
2018-11-03T03:41:57.250Z,4.04
2018-11-03T03:42:57.241Z,3.93
2018-11-03T03:43:57.243Z,4.05
2018-11-03T03:44:57.257Z,3.98
2018-11-03T03:45:57.252Z,3.97
2018-11-03T03:46:57.281Z,4.02
2018-11-03T03:47:57.228Z,4.04
2018-11-03T03:48:57.227Z,4.04
2018-11-03T03:49:57.236Z,4.06
2018-11-03T03:50:57.223Z,4.12
2018-11-03T03:51:57.235Z,4.08
2018-11-03T03:52:57.223Z,4.18
2018-11-03T03:53:57.233Z,4.02
2018-11-03T03:54:57.239Z,4.08
2018-11-03T03:55:57.236Z,4.00
2018-11-03T03:56:57.227Z,4.08
2018-11-03T03:57:57.216Z,4.05
2018-11-03T03:58:57.207Z,3.97
2018-11-03T03:59:57.242Z,3.98
2018-11-03T04:00:57.206Z,3.94
2018-11-03T04:01:57.218Z,3.97
2018-11-03T04:02:57.208Z,3.98
2018-11-03T04:03:57.192Z,3.98
2018-11-03T04:04:57.206Z,3.91
2018-11-03T04:05:57.205Z,4.02
2018-11-03T04:06:57.217Z,3.94
2018-11-03T04:07:57.199Z,4.00
2018-11-03T04:08:57.175Z,3.98
2018-11-03T04:09:57.184Z,3.91
2018-11-03T04:10:57.184Z,4.00
2018-11-03T04:11:57.190Z,4.02
2018-11-03T04:12:57.165Z,4.00
2018-11-03T04:13:57.167Z,3.86
2018-11-03T04:14:57.170Z,3.79
2018-11-03T04:15:57.186Z,3.75
2018-11-03T04:16:57.162Z,3.87
2018-11-03T04:17:57.189Z,3.84
2018-11-03T04:18:57.181Z,3.93
2018-11-03T04:19:57.210Z,3.91
2018-11-03T04:20:57.166Z,3.93
2018-11-03T04:21:57.158Z,3.90
2018-11-03T04:22:57.156Z,3.90
2018-11-03T04:23:57.163Z,3.86
2018-11-03T04:24:57.159Z,3.83
2018-11-03T04:25:57.165Z,3.91
2018-11-03T04:26:57.162Z,3.86
2018-11-03T04:27:57.152Z,3.84
2018-11-03T04:28:57.143Z,3.86
2018-11-03T04:29:57.143Z,3.87
2018-11-03T04:30:57.156Z,3.84
2018-11-03T04:31:57.155Z,3.90
2018-11-03T04:32:57.203Z,3.80
2018-11-03T04:33:57.136Z,3.84
2018-11-03T04:34:57.121Z,3.83
2018-11-03T04:35:57.149Z,3.79
2018-11-03T04:36:57.129Z,3.73
2018-11-03T04:37:57.126Z,3.75
2018-11-03T04:38:57.119Z,3.83
2018-11-03T04:39:57.111Z,3.76
2018-11-03T04:40:57.146Z,3.79
2018-11-03T04:41:57.137Z,3.80
2018-11-03T04:42:57.110Z,3.76
2018-11-03T04:43:57.125Z,3.83
2018-11-03T04:44:57.126Z,3.78
2018-11-03T04:45:57.109Z,3.90
2018-11-03T04:46:57.099Z,3.94
2018-11-03T04:47:57.126Z,3.83
2018-11-03T04:48:57.101Z,3.83
2018-11-03T04:49:57.131Z,3.87
2018-11-03T04:50:57.088Z,3.90
2018-11-03T04:51:57.125Z,3.91
2018-11-03T04:52:57.085Z,3.91
2018-11-03T04:53:57.100Z,3.75
2018-11-03T04:54:57.174Z,3.78
2018-11-03T04:55:57.091Z,3.70
2018-11-03T04:56:57.081Z,3.73
2018-11-03T04:57:57.067Z,3.62
2018-11-03T04:58:57.071Z,3.62
2018-11-03T04:59:57.065Z,3.70
2018-11-03T05:00:57.069Z,3.72
2018-11-03T05:01:57.085Z,3.73
2018-11-03T05:02:57.076Z,3.78
2018-11-03T05:03:57.085Z,3.78
2018-11-03T05:04:57.064Z,3.70
2018-11-03T05:05:57.084Z,3.76
2018-11-03T05:06:57.061Z,3.75
2018-11-03T05:07:57.049Z,3.75
2018-11-03T05:08:57.049Z,3.78
2018-11-03T05:09:57.045Z,3.78
2018-11-03T05:10:57.059Z,3.78
2018-11-03T05:11:57.055Z,3.80
2018-11-03T05:12:57.050Z,3.79
2018-11-03T05:13:57.031Z,3.76
2018-11-03T05:14:57.030Z,3.79
2018-11-03T05:15:57.030Z,3.70
2018-11-03T05:16:57.049Z,3.60
2018-11-03T05:17:57.065Z,3.73
2018-11-03T05:18:57.049Z,3.62
2018-11-03T05:19:57.063Z,3.58
2018-11-03T05:20:57.068Z,3.50
2018-11-03T05:21:57.022Z,3.48
2018-11-03T05:22:57.020Z,3.50
2018-11-03T05:23:57.043Z,3.52
2018-11-03T05:24:57.004Z,3.61
2018-11-03T05:25:57.004Z,3.58
2018-11-03T05:26:57.016Z,3.66
2018-11-03T05:27:57.006Z,3.61
2018-11-03T05:28:57.010Z,3.68
2018-11-03T05:29:57.017Z,3.60
2018-11-03T05:30:57.004Z,3.52
2018-11-03T05:31:56.993Z,3.58
2018-11-03T05:32:56.995Z,3.61
2018-11-03T05:33:56.996Z,3.50
2018-11-03T05:34:57.015Z,3.65
2018-11-03T05:35:56.988Z,3.52
2018-11-03T05:36:56.982Z,3.47
2018-11-03T05:37:56.989Z,3.50
2018-11-03T05:38:56.996Z,3.54
2018-11-03T05:39:56.976Z,3.50
2018-11-03T05:40:56.987Z,3.45
2018-11-03T05:41:56.968Z,3.40
2018-11-03T05:42:56.985Z,3.47
2018-11-03T05:43:56.973Z,3.52
2018-11-03T05:44:56.962Z,3.51
2018-11-03T05:45:56.992Z,3.45
2018-11-03T05:46:56.968Z,3.48
2018-11-03T05:47:56.977Z,3.45
2018-11-03T05:48:56.967Z,3.48
2018-11-03T05:49:56.985Z,3.50
2018-11-03T05:50:56.953Z,3.42
2018-11-03T05:51:56.962Z,3.35
2018-11-03T05:52:56.963Z,3.51
2018-11-03T05:53:56.964Z,3.50
2018-11-03T05:54:56.951Z,3.55
2018-11-03T05:55:56.934Z,3.52
2018-11-03T05:56:56.978Z,3.51
2018-11-03T05:57:56.951Z,3.55
2018-11-03T05:58:56.985Z,3.47
2018-11-03T05:59:56.929Z,3.54
2018-11-03T06:00:56.952Z,3.51
2018-11-03T06:01:56.941Z,3.61
2018-11-03T06:02:56.934Z,3.62
2018-11-03T06:03:56.942Z,3.62
2018-11-03T06:04:56.941Z,3.62
2018-11-03T06:05:56.916Z,3.66
2018-11-03T06:06:56.942Z,3.60
2018-11-03T06:07:56.927Z,3.62
2018-11-03T06:08:57.056Z,3.60
2018-11-03T06:09:56.912Z,3.66
2018-11-03T06:10:56.910Z,3.60
2018-11-03T06:11:56.902Z,3.68
2018-11-03T06:12:56.899Z,3.70
2018-11-03T06:13:56.924Z,3.65
2018-11-03T06:14:56.891Z,3.69
2018-11-03T06:15:56.919Z,3.79
2018-11-03T06:16:56.887Z,3.75
2018-11-03T06:17:56.894Z,3.76
2018-11-03T06:18:56.905Z,3.66
2018-11-03T06:19:56.883Z,3.73
2018-11-03T06:20:56.916Z,3.76
2018-11-03T06:21:56.877Z,3.72
2018-11-03T06:22:56.919Z,3.73
2018-11-03T06:23:56.890Z,3.73
2018-11-03T06:24:56.865Z,3.78
2018-11-03T06:25:56.870Z,3.73
2018-11-03T06:26:56.900Z,3.75
2018-11-03T06:27:56.944Z,3.75
2018-11-03T06:28:56.881Z,3.76
2018-11-03T06:29:56.863Z,3.70
2018-11-03T06:30:56.857Z,3.76
2018-11-03T06:31:56.859Z,3.80
2018-11-03T06:32:56.855Z,3.90
2018-11-03T06:33:56.899Z,3.94
2018-11-03T06:34:56.859Z,3.97
2018-11-03T06:35:56.854Z,4.00
2018-11-03T06:36:56.853Z,3.96
2018-11-03T06:37:56.841Z,4.06
2018-11-03T06:38:56.881Z,4.08
2018-11-03T06:39:56.855Z,4.02
2018-11-03T06:40:56.840Z,4.09
2018-11-03T06:41:56.874Z,4.16
2018-11-03T06:42:56.853Z,4.16
2018-11-03T06:43:56.837Z,4.14
2018-11-03T06:44:56.831Z,4.08
2018-11-03T06:45:56.833Z,4.15
2018-11-03T06:46:56.823Z,4.18
2018-11-03T06:47:56.817Z,4.16
2018-11-03T06:48:56.825Z,4.20
2018-11-03T06:49:56.821Z,4.16
2018-11-03T06:50:56.839Z,4.24
2018-11-03T06:51:56.811Z,4.36
2018-11-03T06:52:56.809Z,4.40
2018-11-03T06:53:56.810Z,4.58
2018-11-03T06:54:56.800Z,4.47
2018-11-03T06:55:56.806Z,4.59
2018-11-03T06:56:56.801Z,4.59
2018-11-03T06:57:56.820Z,4.70
2018-11-03T06:58:56.803Z,4.66
2018-11-03T06:59:56.792Z,4.75
2018-11-03T07:00:56.801Z,4.73
2018-11-03T07:01:56.787Z,4.75
2018-11-03T07:02:56.782Z,4.75
2018-11-03T07:03:56.797Z,4.70
2018-11-03T07:04:56.843Z,4.70
2018-11-03T07:05:56.804Z,4.60
2018-11-03T07:06:56.790Z,4.73
2018-11-03T07:07:56.767Z,4.78
2018-11-03T07:08:56.776Z,4.88
2018-11-03T07:09:56.775Z,4.91
2018-11-03T07:10:56.785Z,4.94
2018-11-03T07:11:56.835Z,4.92
2018-11-03T07:12:56.843Z,4.84
2018-11-03T07:13:56.768Z,4.89
2018-11-03T07:14:56.778Z,4.91
2018-11-03T07:15:56.750Z,4.91
2018-11-03T07:16:56.758Z,4.92
2018-11-03T07:17:56.763Z,4.92
2018-11-03T07:18:56.773Z,5.00
2018-11-03T07:19:56.769Z,5.04
2018-11-03T07:20:56.741Z,5.00
2018-11-03T07:21:56.743Z,5.20
2018-11-03T07:22:56.754Z,5.15
2018-11-03T07:23:56.757Z,5.18
2018-11-03T07:24:56.744Z,5.31
2018-11-03T07:25:56.747Z,5.39
2018-11-03T07:26:56.757Z,5.42
2018-11-03T07:27:56.758Z,5.51
2018-11-03T07:28:56.753Z,5.74
2018-11-03T07:29:56.735Z,6.03
2018-11-03T07:30:56.726Z,6.70
2018-11-03T07:31:56.768Z,7.24
2018-11-03T07:32:56.737Z,7.95
2018-11-03T07:33:56.739Z,8.55
2018-11-03T07:34:56.732Z,8.11
2018-11-03T07:35:56.729Z,8.26
2018-11-03T07:36:56.727Z,8.36
2018-11-03T07:37:56.739Z,8.62
2018-11-03T07:38:56.732Z,8.83
2018-11-03T07:39:56.739Z,8.76
2018-11-03T07:40:56.732Z,8.92
2018-11-03T07:41:56.720Z,8.94
2018-11-03T07:42:56.720Z,9.04
2018-11-03T07:43:56.723Z,9.17
2018-11-03T07:44:56.718Z,9.05
2018-11-03T07:45:57.303Z,8.22
2018-11-03T07:46:56.722Z,7.80
2018-11-03T07:47:56.757Z,7.50
2018-11-03T07:48:56.817Z,7.50
2018-11-03T07:49:56.717Z,7.89
2018-11-03T07:50:56.717Z,8.53
2018-11-03T07:51:56.725Z,8.79
2018-11-03T07:52:56.734Z,8.80
2018-11-03T07:53:56.722Z,8.86
2018-11-03T07:54:56.851Z,8.95
2018-11-03T07:55:56.713Z,8.92
2018-11-03T07:56:56.731Z,8.30
2018-11-03T07:57:56.713Z,8.05
2018-11-03T07:58:56.718Z,8.08
2018-11-03T07:59:56.727Z,7.85
2018-11-03T08:00:56.712Z,7.80
2018-11-03T08:01:56.722Z,7.46
2018-11-03T08:02:56.725Z,7.50
2018-11-03T08:03:56.722Z,7.68
2018-11-03T08:04:56.718Z,7.74
2018-11-03T08:05:56.747Z,7.46
2018-11-03T08:06:56.744Z,7.40
2018-11-03T08:07:56.736Z,7.10
2018-11-03T08:08:56.784Z,6.87
2018-11-03T08:09:56.730Z,6.81
2018-11-03T08:10:56.749Z,6.87
2018-11-03T08:11:56.743Z,6.84
2018-11-03T08:12:56.712Z,6.80
2018-11-03T08:13:56.722Z,6.62
2018-11-03T08:14:56.727Z,6.56
2018-11-03T08:15:56.738Z,6.73
2018-11-03T08:16:56.713Z,6.79
2018-11-03T08:17:56.722Z,6.80
2018-11-03T08:18:56.752Z,6.76
2018-11-03T08:19:56.728Z,6.85
2018-11-03T08:20:56.732Z,6.89
2018-11-03T08:21:56.732Z,7.12
2018-11-03T08:22:56.729Z,7.37
2018-11-03T08:23:56.801Z,7.40
2018-11-03T08:24:56.752Z,7.52
2018-11-03T08:25:56.738Z,7.80
2018-11-03T08:26:56.747Z,7.69
2018-11-03T08:27:56.731Z,7.49
2018-11-03T08:28:56.720Z,7.46
2018-11-03T08:29:56.722Z,7.49
2018-11-03T08:30:56.728Z,7.45
2018-11-03T08:31:56.743Z,7.43
2018-11-03T08:32:56.719Z,7.52
2018-11-03T08:33:56.722Z,7.83
2018-11-03T08:34:56.757Z,8.00
2018-11-03T08:35:56.751Z,8.00
2018-11-03T08:36:56.745Z,8.34
2018-11-03T08:37:56.720Z,8.44
2018-11-03T08:38:56.742Z,8.29
2018-11-03T08:39:56.742Z,8.44
2018-11-03T08:40:56.719Z,8.48
2018-11-03T08:41:56.713Z,8.74
2018-11-03T08:42:56.746Z,9.11
2018-11-03T08:43:56.724Z,9.11
2018-11-03T08:44:56.729Z,9.42
2018-11-03T08:45:56.724Z,9.79
2018-11-03T08:46:56.725Z,10.61
2018-11-03T08:47:56.747Z,11.21
2018-11-03T08:48:56.784Z,11.32
2018-11-03T08:49:56.736Z,10.94
2018-11-03T08:50:56.731Z,10.56
2018-11-03T08:51:56.726Z,10.15
2018-11-03T08:52:56.739Z,9.76
2018-11-03T08:53:56.725Z,9.57
2018-11-03T08:54:56.729Z,10.22
2018-11-03T08:55:56.743Z,10.53
2018-11-03T08:56:56.747Z,10.60
2018-11-03T08:57:56.730Z,10.76
2018-11-03T08:58:59.409Z,11.18
2018-11-03T08:59:56.903Z,11.58
2018-11-03T09:00:56.745Z,10.88
2018-11-03T09:01:56.740Z,10.56
2018-11-03T09:02:56.731Z,10.52
2018-11-03T09:03:56.753Z,10.47
2018-11-03T09:04:56.757Z,10.52
2018-11-03T09:05:56.736Z,10.27
2018-11-03T09:06:56.834Z,10.22
2018-11-03T09:07:56.754Z,10.30
2018-11-03T09:08:56.754Z,10.01
2018-11-03T09:09:56.750Z,10.52
2018-11-03T09:10:56.772Z,10.86
2018-11-03T09:11:56.750Z,10.81
2018-11-03T09:12:56.760Z,11.40
2018-11-03T09:13:56.752Z,12.10
2018-11-03T09:14:56.778Z,12.12
2018-11-03T09:15:56.766Z,11.91
2018-11-03T09:16:56.763Z,12.14
2018-11-03T09:17:56.779Z,12.16
2018-11-03T09:18:56.787Z,12.42
2018-11-03T09:19:56.779Z,12.54
2018-11-03T09:20:56.768Z,12.83
2018-11-03T09:21:56.852Z,13.10
2018-11-03T09:22:56.765Z,13.12
2018-11-03T09:23:56.776Z,12.97
2018-11-03T09:24:56.775Z,12.83
2018-11-03T09:25:56.795Z,12.19
2018-11-03T09:26:56.787Z,11.76
2018-11-03T09:27:56.780Z,11.76
2018-11-03T09:28:56.778Z,12.07
2018-11-03T09:29:56.803Z,12.13
2018-11-03T09:30:56.782Z,12.17
2018-11-03T09:31:56.869Z,11.90
2018-11-03T09:32:56.793Z,11.58
2018-11-03T09:33:56.817Z,11.49
2018-11-03T09:34:56.800Z,11.60
2018-11-03T09:35:56.800Z,11.73
2018-11-03T09:36:56.802Z,11.25
2018-11-03T09:37:56.817Z,10.81
2018-11-03T09:38:56.817Z,10.34
2018-11-03T09:39:56.839Z,10.18
2018-11-03T09:40:56.842Z,9.86
2018-11-03T09:41:56.822Z,9.69
2018-11-03T09:42:56.863Z,9.75
2018-11-03T09:43:56.830Z,9.66
2018-11-03T09:44:56.856Z,9.60
2018-11-03T09:45:56.815Z,9.64
2018-11-03T09:46:56.819Z,9.51
2018-11-03T09:47:56.826Z,9.47
2018-11-03T09:48:56.826Z,9.51
2018-11-03T09:49:56.830Z,9.56
2018-11-03T09:50:56.861Z,9.60
2018-11-03T09:51:56.844Z,9.61
2018-11-03T09:52:56.820Z,9.79
2018-11-03T09:53:56.838Z,9.76
2018-11-03T09:54:56.831Z,9.69
2018-11-03T09:55:56.843Z,9.43
2018-11-03T09:56:56.849Z,9.64
2018-11-03T09:57:56.829Z,9.86
2018-11-03T09:58:56.847Z,10.12
2018-11-03T09:59:56.844Z,10.17
2018-11-03T10:00:56.855Z,10.27
2018-11-03T10:01:56.852Z,10.56
2018-11-03T10:02:56.844Z,10.60
2018-11-03T10:03:56.863Z,10.56
2018-11-03T10:04:56.857Z,11.00
2018-11-03T10:05:56.840Z,11.37
2018-11-03T10:06:56.842Z,11.61
2018-11-03T10:07:56.884Z,11.58
2018-11-03T10:08:56.857Z,11.55
2018-11-03T10:09:56.927Z,11.85
2018-11-03T10:10:56.866Z,11.70
2018-11-03T10:11:56.887Z,12.01
2018-11-03T10:12:56.923Z,12.19
2018-11-03T10:13:56.869Z,12.42
2018-11-03T10:14:56.864Z,11.85
2018-11-03T10:15:56.930Z,11.57
2018-11-03T10:16:56.857Z,11.32
2018-11-03T10:17:56.857Z,11.67
2018-11-03T10:18:56.878Z,11.65
2018-11-03T10:19:56.872Z,11.39
2018-11-03T10:20:56.881Z,11.57
2018-11-03T10:21:56.879Z,11.28
2018-11-03T10:22:56.942Z,11.61
2018-11-03T10:23:56.879Z,11.69
2018-11-03T10:24:56.898Z,11.79
2018-11-03T10:25:56.878Z,11.86
2018-11-03T10:26:56.881Z,11.98
2018-11-03T10:27:56.879Z,12.27
2018-11-03T10:28:56.879Z,12.74
2018-11-03T10:29:56.891Z,13.00
2018-11-03T10:30:56.883Z,13.01
2018-11-03T10:31:56.918Z,13.25
2018-11-03T10:32:56.911Z,13.32
2018-11-03T10:33:56.925Z,13.81
2018-11-03T10:34:56.897Z,14.00
2018-11-03T10:35:56.908Z,13.88
2018-11-03T10:36:56.906Z,14.17
2018-11-03T10:37:56.929Z,14.42
2018-11-03T10:38:56.905Z,14.39
2018-11-03T10:39:56.936Z,14.12
2018-11-03T10:40:56.918Z,14.29
2018-11-03T10:41:56.925Z,13.99
2018-11-03T10:42:56.943Z,13.77
2018-11-03T10:43:56.920Z,14.10
2018-11-03T10:44:56.921Z,13.71
2018-11-03T10:45:56.943Z,13.63
2018-11-03T10:46:56.939Z,13.79
2018-11-03T10:47:56.942Z,13.64
2018-11-03T10:48:56.951Z,13.49
2018-11-03T10:49:56.947Z,13.42
2018-11-03T10:50:56.951Z,13.55
2018-11-03T10:51:56.936Z,13.39
2018-11-03T10:52:56.941Z,13.59
2018-11-03T10:53:56.945Z,13.45
2018-11-03T10:54:56.943Z,13.89
2018-11-03T10:55:56.950Z,13.81
2018-11-03T10:56:56.945Z,13.70
2018-11-03T10:57:56.981Z,13.30
2018-11-03T10:58:57.018Z,13.85
2018-11-03T10:59:56.964Z,13.88
2018-11-03T11:00:56.968Z,13.87
2018-11-03T11:01:56.981Z,13.46
2018-11-03T11:02:56.969Z,13.08
2018-11-03T11:03:56.998Z,12.72
2018-11-03T11:04:56.975Z,13.20
2018-11-03T11:05:56.997Z,13.14
2018-11-03T11:06:56.974Z,13.14
2018-11-03T11:07:56.981Z,13.19
2018-11-03T11:08:56.995Z,13.22
2018-11-03T11:09:57.011Z,12.85
2018-11-03T11:10:56.999Z,13.07
2018-11-03T11:11:57.005Z,12.90
2018-11-03T11:12:57.008Z,13.48
2018-11-03T11:13:57.057Z,14.07
2018-11-03T11:14:57.017Z,14.37
2018-11-03T11:15:57.093Z,14.32
2018-11-03T11:16:57.091Z,13.45
2018-11-03T11:17:57.051Z,13.66
2018-11-03T11:18:57.010Z,14.04
2018-11-03T11:19:57.054Z,13.82
2018-11-03T11:20:57.027Z,13.57
2018-11-03T11:21:57.026Z,13.77
2018-11-03T11:22:57.038Z,13.49
2018-11-03T11:23:57.121Z,13.07
2018-11-03T11:24:57.144Z,13.23
2018-11-03T11:25:57.033Z,13.29
2018-11-03T11:26:57.053Z,13.42
2018-11-03T11:27:57.081Z,13.01
2018-11-03T11:28:57.066Z,13.11
2018-11-03T11:29:57.056Z,13.28
2018-11-03T11:30:57.057Z,13.33
2018-11-03T11:31:57.065Z,13.45
2018-11-03T11:32:57.053Z,13.45
2018-11-03T11:33:57.055Z,13.04
2018-11-03T11:34:57.064Z,13.08
2018-11-03T11:35:57.080Z,12.87
2018-11-03T11:36:57.081Z,13.28
2018-11-03T11:37:57.108Z,13.85
2018-11-03T11:38:57.084Z,13.60
2018-11-03T11:39:57.089Z,13.28
2018-11-03T11:40:57.140Z,13.49
2018-11-03T11:41:57.099Z,13.60
2018-11-03T11:42:57.145Z,13.57
2018-11-03T11:43:57.113Z,13.79
2018-11-03T11:44:57.089Z,13.49
2018-11-03T11:45:57.138Z,13.54
2018-11-03T11:46:57.128Z,13.15
2018-11-03T11:47:57.108Z,13.15
2018-11-03T11:48:57.100Z,13.17
2018-11-03T11:49:57.104Z,12.93
2018-11-03T11:50:57.160Z,12.77
2018-11-03T11:51:57.126Z,12.23
2018-11-03T11:52:57.119Z,12.13
2018-11-03T11:53:57.117Z,11.64
2018-11-03T11:54:57.193Z,11.70
2018-11-03T11:55:57.129Z,11.67
2018-11-03T11:56:57.122Z,11.75
2018-11-03T11:57:57.179Z,11.82
2018-11-03T11:58:57.166Z,11.88
2018-11-03T11:59:57.141Z,11.73
2018-11-03T12:00:57.153Z,11.67
2018-11-03T12:01:57.131Z,11.52
2018-11-03T12:02:57.160Z,11.42
2018-11-03T12:03:57.138Z,11.47
2018-11-03T12:04:57.136Z,11.40
2018-11-03T12:05:57.153Z,11.37
2018-11-03T12:06:57.150Z,11.35
2018-11-03T12:07:57.155Z,11.28
2018-11-03T12:08:57.138Z,11.32
2018-11-03T12:09:57.213Z,11.36
2018-11-03T12:10:57.162Z,11.27
2018-11-03T12:11:57.142Z,11.17
2018-11-03T12:12:57.177Z,11.00
2018-11-03T12:13:57.170Z,10.81
2018-11-03T12:14:57.157Z,10.84
2018-11-03T12:15:57.158Z,10.74
2018-11-03T12:16:57.167Z,10.70
2018-11-03T12:17:57.170Z,10.73
2018-11-03T12:18:57.162Z,10.81
2018-11-03T12:19:57.210Z,10.88
2018-11-03T12:20:57.163Z,10.82
2018-11-03T12:21:57.186Z,10.91
2018-11-03T12:22:57.179Z,10.88
2018-11-03T12:23:57.189Z,10.79
2018-11-03T12:24:57.200Z,10.74
2018-11-03T12:25:57.193Z,10.70
2018-11-03T12:26:57.196Z,10.60
2018-11-03T12:27:57.180Z,10.47
2018-11-03T12:28:57.188Z,10.61
2018-11-03T12:29:57.197Z,10.52
2018-11-03T12:30:57.178Z,10.68
2018-11-03T12:31:57.170Z,10.73
2018-11-03T12:32:57.181Z,10.64
2018-11-03T12:33:57.183Z,10.55
2018-11-03T12:34:57.190Z,10.64
2018-11-03T12:35:57.194Z,10.52
2018-11-03T12:36:57.210Z,10.73
2018-11-03T12:37:57.186Z,10.68
2018-11-03T12:38:57.196Z,10.74
2018-11-03T12:39:57.202Z,10.70
2018-11-03T12:40:57.273Z,10.67
2018-11-03T12:41:57.205Z,10.73
2018-11-03T12:42:57.205Z,10.70
2018-11-03T12:43:57.228Z,10.64
2018-11-03T12:44:57.189Z,10.61
2018-11-03T12:45:57.200Z,10.51
2018-11-03T12:46:57.199Z,10.60
2018-11-03T12:47:57.315Z,10.48
2018-11-03T12:48:57.190Z,10.34
2018-11-03T12:49:57.203Z,10.41
2018-11-03T12:50:57.213Z,10.59
2018-11-03T12:51:57.207Z,10.63
2018-11-03T12:52:57.203Z,10.53
2018-11-03T12:53:57.209Z,10.70
2018-11-03T12:54:57.259Z,10.71
2018-11-03T12:55:57.194Z,10.78
2018-11-03T12:56:57.190Z,10.70
2018-11-03T12:57:57.215Z,10.84
2018-11-03T12:58:57.278Z,10.88
2018-11-03T12:59:57.218Z,10.84
2018-11-03T13:00:57.215Z,10.79
2018-11-03T13:01:57.217Z,10.76
2018-11-03T13:02:57.205Z,10.67
2018-11-03T13:03:57.225Z,10.68
2018-11-03T13:04:57.273Z,10.78
2018-11-03T13:05:57.209Z,10.70
2018-11-03T13:06:57.207Z,10.73
2018-11-03T13:07:57.239Z,10.66
2018-11-03T13:08:57.201Z,10.67
2018-11-03T13:09:57.227Z,10.73
2018-11-03T13:10:57.207Z,10.70